MUC | München Airways

 METAR UND TAF INFORMATION

METAR FOR GOBD
ADDS - METARS form results

(1533 UTC 19 May 2019)
Data provider http://aviationweather.gov/metar/data/
 
METAR text: GOBD 191530Z 35019KT 9000 NSC 26/15 Q1012 NOSIG
Conditions at: GOBD (DAKAR/DIAGNE , SN) observed 1530 UTC 19 May 2019
Temperature: 26.0°C (79°F)
Dewpoint: 15.0°C (59°F) [RH = 51%]
Pressure (altimeter): 29.88 inches Hg (1012.0 mb)
Winds: from the N (350 degrees) at 22 MPH (19 knots; 9.8 m/s)
Visibility: 6 miles ( 9 km)
Ceiling: at least 12,000 feet AGL
Clouds: sky clear below 12,000 feet AGL
Weather: no significant weather observed at this time

METAR text: GOBD 191500Z 36018KT 9000 NSC 26/16 Q1012 NOSIG
Conditions at: GOBD (DAKAR/DIAGNE , SN) observed 1500 UTC 19 May 2019
Temperature: 26.0°C (79°F)
Dewpoint: 16.0°C (61°F) [RH = 54%]
Pressure (altimeter): 29.88 inches Hg (1012.0 mb)
Winds: from the N (360 degrees) at 21 MPH (18 knots; 9.3 m/s)
Visibility: 6 miles ( 9 km)
Ceiling: at least 12,000 feet AGL
Clouds: sky clear below 12,000 feet AGL
Weather: no significant weather observed at this time

Forecast for: GOBD (DAKAR/DIAGNE , SN)
Text: TAF GOBD 191130Z 1912/2018 35015KT CAVOK
Forecast period: 1200 UTC 19 May 2019 to 1800 UTC 20 May 2019
Forecast type: FROM: standard forecast or significant change
Winds: from the N (350 degrees) at 17 MPH (15 knots; 7.7 m/s)
Visibility: 6 or more miles 10+ km)
Ceiling: unknown
Clouds: missing
Weather: NSW  (no significant weather)

 FLUGHAFENKARTE

 RUNWAY INFORMATION

 AIRPORT FREQUENCIES

 AIRPORT NEAR NAVIGATION AIDS